createdAt,value
2022-08-09T00:01:05.263Z,24.00
2022-08-09T00:04:03.758Z,24.00
2022-08-09T00:06:26.740Z,24.00
2022-08-09T00:08:56.991Z,24.00
2022-08-09T00:11:25.410Z,24.00
2022-08-09T00:14:10.616Z,24.00
2022-08-09T00:16:43.958Z,24.00
2022-08-09T00:19:10.635Z,24.00
2022-08-09T00:21:37.183Z,24.00
2022-08-09T00:24:03.689Z,24.00
2022-08-09T00:26:32.681Z,23.90
2022-08-09T00:28:59.701Z,24.00
2022-08-09T00:31:58.704Z,24.00
2022-08-09T00:34:13.000Z,24.00
2022-08-09T00:36:40.003Z,24.00
2022-08-09T00:39:10.902Z,24.00
2022-08-09T00:44:13.486Z,23.90
2022-08-09T00:44:41.739Z,23.90
2022-08-09T00:47:08.751Z,23.90
2022-08-09T00:49:41.989Z,24.00
2022-08-09T00:52:17.561Z,23.90
2022-08-09T00:54:44.961Z,23.90
2022-08-09T00:57:11.643Z,23.90
2022-08-09T00:59:41.148Z,23.90
2022-08-09T01:02:12.673Z,23.90
2022-08-09T01:04:39.635Z,23.90
2022-08-09T01:07:13.983Z,23.90
2022-08-09T01:09:40.615Z,23.90
2022-08-09T01:12:08.533Z,23.90
2022-08-09T01:14:37.967Z,23.90
2022-08-09T01:17:04.823Z,23.90
2022-08-09T01:19:42.787Z,23.90
2022-08-09T01:22:18.113Z,23.90
2022-08-09T01:24:50.396Z,23.90
2022-08-09T01:27:18.738Z,23.90
2022-08-09T01:29:55.069Z,23.90
2022-08-09T01:32:32.231Z,23.80
2022-08-09T01:35:00.179Z,23.80
2022-08-09T01:38:05.511Z,23.80
2022-08-09T01:40:23.322Z,23.80
2022-08-09T01:42:56.804Z,23.80
2022-08-09T01:45:23.329Z,23.80
2022-08-09T01:47:49.910Z,23.80
2022-08-09T01:50:18.037Z,23.80
2022-08-09T01:52:56.526Z,23.80
2022-08-09T01:55:23.058Z,23.80
2022-08-09T01:57:50.803Z,23.80
2022-08-09T02:00:35.718Z,23.80
2022-08-09T02:03:02.840Z,23.80
2022-08-09T02:05:37.773Z,23.70
2022-08-09T02:08:39.947Z,23.80
2022-08-09T02:11:02.520Z,23.80
2022-08-09T02:13:37.696Z,23.80
2022-08-09T02:16:07.030Z,23.80
2022-08-09T02:18:35.297Z,23.70
2022-08-09T02:21:01.831Z,23.80
2022-08-09T02:23:28.355Z,23.80
2022-08-09T02:26:06.096Z,23.80
2022-08-09T02:28:32.658Z,23.70
2022-08-09T02:30:59.173Z,23.70
2022-08-09T02:33:38.178Z,23.70
2022-08-09T02:36:12.203Z,23.70
2022-08-09T02:38:38.748Z,23.70
2022-08-09T02:41:05.271Z,23.70
2022-08-09T02:43:53.953Z,23.60
2022-08-09T02:46:20.595Z,23.70
2022-08-09T02:48:47.164Z,23.70
2022-08-09T02:51:17.682Z,23.70
2022-08-09T02:53:52.988Z,23.70
2022-08-09T02:56:27.994Z,23.70
2022-08-09T02:58:54.584Z,23.70
2022-08-09T03:01:21.803Z,23.70
2022-08-09T03:04:17.504Z,23.70
2022-08-09T03:06:42.234Z,23.70
2022-08-09T03:09:11.939Z,23.70
2022-08-09T03:12:10.376Z,23.60
2022-08-09T03:14:28.465Z,23.60
2022-08-09T03:16:55.058Z,23.60
2022-08-09T03:19:58.126Z,23.60
2022-08-09T03:22:12.479Z,23.60
2022-08-09T03:25:21.684Z,23.60
2022-08-09T03:27:44.810Z,23.60
2022-08-09T03:30:12.301Z,23.60
2022-08-09T03:32:39.323Z,23.60
2022-08-09T03:35:24.372Z,23.60
2022-08-09T03:37:54.451Z,23.50
2022-08-09T03:40:24.501Z,23.60
2022-08-09T03:42:51.193Z,23.60
2022-08-09T03:45:17.742Z,23.50
2022-08-09T03:48:04.245Z,23.60
2022-08-09T03:50:31.887Z,23.60
2022-08-09T03:52:58.635Z,23.60
2022-08-09T03:55:25.613Z,23.60
2022-08-09T03:57:53.532Z,23.60
2022-08-09T04:00:30.176Z,23.60
2022-08-09T04:02:57.389Z,23.50
2022-08-09T04:05:27.459Z,23.50
2022-08-09T04:07:56.840Z,23.50
2022-08-09T04:10:28.917Z,23.50
2022-08-09T04:12:56.641Z,23.50
2022-08-09T04:15:40.395Z,23.50
2022-08-09T04:18:16.664Z,23.50
2022-08-09T04:20:44.800Z,23.50
2022-08-09T04:23:17.372Z,23.60
2022-08-09T04:25:44.234Z,23.50
2022-08-09T04:28:10.756Z,23.50
2022-08-09T04:30:39.054Z,23.50
2022-08-09T04:33:15.042Z,23.50
2022-08-09T04:35:42.356Z,23.50
2022-08-09T04:38:09.016Z,23.50
2022-08-09T04:40:36.542Z,23.50
2022-08-09T04:43:03.527Z,23.50
2022-08-09T04:45:30.342Z,23.50
2022-08-09T04:48:00.914Z,23.50
2022-08-09T04:50:31.924Z,23.50
2022-08-09T04:53:01.675Z,23.50
2022-08-09T04:55:37.913Z,23.50
2022-08-09T04:58:09.339Z,23.40
2022-08-09T05:00:36.425Z,23.50
2022-08-09T05:03:12.877Z,23.50
2022-08-09T05:06:04.363Z,23.60
2022-08-09T05:08:33.419Z,23.50
2022-08-09T05:11:01.078Z,23.50
2022-08-09T05:13:29.057Z,23.50
2022-08-09T05:15:59.525Z,23.50
2022-08-09T05:18:50.833Z,23.50
2022-08-09T05:21:23.136Z,23.50
2022-08-09T05:23:57.987Z,23.60
2022-08-09T05:26:36.728Z,23.60
2022-08-09T05:29:17.415Z,23.50
2022-08-09T05:31:57.312Z,23.50
2022-08-09T05:34:29.841Z,23.50
2022-08-09T05:36:57.705Z,23.50
2022-08-09T05:39:29.051Z,23.50
2022-08-09T05:41:56.636Z,23.50
2022-08-09T05:44:29.028Z,23.50
2022-08-09T05:46:59.489Z,23.50
2022-08-09T05:50:05.890Z,23.50
2022-08-09T05:52:12.513Z,23.50
2022-08-09T05:54:39.859Z,23.50
2022-08-09T05:57:07.352Z,23.50
2022-08-09T05:59:39.412Z,23.50
2022-08-09T06:02:08.408Z,23.50
2022-08-09T06:04:36.599Z,23.50
2022-08-09T06:07:03.137Z,23.50
2022-08-09T06:09:54.823Z,23.60
2022-08-09T06:12:16.148Z,23.60
2022-08-09T06:14:43.695Z,23.60
2022-08-09T06:17:10.384Z,23.60
2022-08-09T06:19:37.000Z,23.60
2022-08-09T06:22:03.566Z,23.60
2022-08-09T06:24:30.077Z,23.60
2022-08-09T06:26:57.786Z,23.70
2022-08-09T06:29:24.530Z,23.60
2022-08-09T06:32:17.157Z,23.70
2022-08-09T06:34:39.959Z,23.70
2022-08-09T06:37:10.065Z,23.70
2022-08-09T06:39:57.412Z,23.70
2022-08-09T06:42:24.459Z,23.70
2022-08-09T06:44:57.573Z,23.70
2022-08-09T06:47:24.115Z,23.70
2022-08-09T06:50:13.689Z,23.70
2022-08-09T06:52:37.151Z,23.70
2022-08-09T06:55:09.982Z,23.70
2022-08-09T06:58:01.574Z,23.70
2022-08-09T07:00:49.823Z,23.70
2022-08-09T07:03:09.858Z,23.80
2022-08-09T07:05:58.619Z,23.70
2022-08-09T07:08:24.717Z,23.70
2022-08-09T07:10:51.435Z,23.80
2022-08-09T07:13:27.371Z,23.80
2022-08-09T07:16:42.209Z,23.80
2022-08-09T07:18:42.247Z,23.80
2022-08-09T07:21:09.537Z,23.80
2022-08-09T07:23:46.526Z,23.80
2022-08-09T07:26:13.443Z,23.80
2022-08-09T07:29:08.199Z,23.80
2022-08-09T07:31:26.810Z,23.80
2022-08-09T07:33:56.066Z,23.80
2022-08-09T07:36:26.448Z,23.80
2022-08-09T07:39:00.541Z,23.80
2022-08-09T07:41:27.613Z,23.80
2022-08-09T07:43:59.543Z,23.80
2022-08-09T07:46:27.690Z,23.80
2022-08-09T07:48:59.235Z,23.80
2022-08-09T07:52:06.259Z,23.80
2022-08-09T07:54:12.711Z,23.80
2022-08-09T07:56:49.590Z,23.80
2022-08-09T07:59:25.291Z,23.80
2022-08-09T08:02:00.673Z,23.90
2022-08-09T08:04:31.689Z,23.90
2022-08-09T08:07:09.385Z,23.80
2022-08-09T08:09:53.402Z,23.90
2022-08-09T08:12:34.388Z,23.90
2022-08-09T08:15:01.100Z,23.90
2022-08-09T08:17:52.246Z,23.90
2022-08-09T08:20:14.144Z,23.90
2022-08-09T08:22:41.324Z,23.90
2022-08-09T08:25:09.473Z,23.90
2022-08-09T08:27:40.772Z,23.90
2022-08-09T08:30:07.556Z,23.90
2022-08-09T08:32:52.465Z,23.90
2022-08-09T08:35:20.004Z,23.90
2022-08-09T08:37:59.359Z,23.90
2022-08-09T08:40:26.585Z,23.90
2022-08-09T08:42:56.253Z,23.90
2022-08-09T08:45:37.145Z,23.90
2022-08-09T08:48:05.166Z,23.90
2022-08-09T08:50:31.880Z,23.90
2022-08-09T08:53:00.703Z,23.90
2022-08-09T08:55:27.508Z,23.90
2022-08-09T08:57:57.433Z,23.90
2022-08-09T09:00:27.494Z,23.90
2022-08-09T09:02:56.268Z,23.90
2022-08-09T09:05:32.992Z,23.90
2022-08-09T09:08:12.701Z,23.90
2022-08-09T09:10:55.174Z,24.00
2022-08-09T09:13:21.705Z,23.90
2022-08-09T09:15:49.675Z,23.90
2022-08-09T09:18:16.213Z,23.90
2022-08-09T09:20:43.011Z,23.90
2022-08-09T09:23:09.524Z,23.90
2022-08-09T09:26:03.841Z,23.90
2022-08-09T09:29:02.842Z,24.00
2022-08-09T09:32:04.140Z,23.90
2022-08-09T09:34:06.277Z,24.00
2022-08-09T09:36:33.122Z,23.90
2022-08-09T09:38:59.715Z,24.00
2022-08-09T09:41:26.237Z,24.00
2022-08-09T09:44:12.222Z,24.00
2022-08-09T09:46:43.521Z,24.00
2022-08-09T09:49:17.318Z,24.00
2022-08-09T09:51:58.915Z,24.00
2022-08-09T09:54:28.092Z,24.00
2022-08-09T09:58:04.138Z,24.00
2022-08-09T09:59:42.958Z,24.00
2022-08-09T10:02:10.339Z,24.00
2022-08-09T10:04:37.668Z,24.00
2022-08-09T10:07:09.744Z,24.00
2022-08-09T10:09:36.743Z,24.00
2022-08-09T10:12:14.124Z,24.00
2022-08-09T10:14:51.959Z,24.00
2022-08-09T10:17:39.509Z,24.00
2022-08-09T10:20:05.160Z,24.00
2022-08-09T10:22:37.442Z,24.00
2022-08-09T10:25:11.007Z,24.10
2022-08-09T10:27:44.876Z,24.00
2022-08-09T10:33:10.280Z,24.10
2022-08-09T10:35:56.801Z,24.10
2022-08-09T10:38:54.405Z,24.10
2022-08-09T10:41:14.073Z,24.10
2022-08-09T10:43:46.989Z,24.10
2022-08-09T10:46:26.867Z,24.10
2022-08-09T10:48:53.404Z,24.10
2022-08-09T10:51:19.942Z,24.10
2022-08-09T10:53:56.188Z,24.10
2022-08-09T10:56:23.378Z,24.10
2022-08-09T10:58:49.903Z,24.20
2022-08-09T11:03:27.528Z,24.10
2022-08-09T11:04:04.082Z,24.10
2022-08-09T11:06:32.995Z,24.10
2022-08-09T11:09:09.910Z,24.10
2022-08-09T11:11:43.633Z,24.10
2022-08-09T11:14:18.495Z,24.10
2022-08-09T11:16:55.296Z,24.10
2022-08-09T11:19:23.139Z,24.20
2022-08-09T11:22:18.945Z,24.10
2022-08-09T11:24:52.272Z,24.10
2022-08-09T11:27:52.906Z,24.20
2022-08-09T11:30:32.155Z,24.20
2022-08-09T11:32:52.226Z,24.20
2022-08-09T11:35:26.311Z,24.10
2022-08-09T11:38:01.572Z,24.20
2022-08-09T11:40:28.166Z,24.20
2022-08-09T11:42:56.154Z,24.20
2022-08-09T11:45:22.662Z,24.20
2022-08-09T11:47:49.188Z,24.20
2022-08-09T11:50:53.641Z,24.20
2022-08-09T11:53:20.991Z,24.20
2022-08-09T11:55:52.051Z,24.20
2022-08-09T11:58:32.709Z,24.20
2022-08-09T12:01:03.298Z,24.20
2022-08-09T12:03:54.857Z,24.20
2022-08-09T12:06:26.709Z,24.20
2022-08-09T12:08:58.827Z,24.20
2022-08-09T12:11:27.670Z,24.20
2022-08-09T12:14:07.941Z,24.20
2022-08-09T12:16:39.979Z,24.30
2022-08-09T12:19:06.876Z,24.30
2022-08-09T12:21:38.941Z,24.20
2022-08-09T12:24:15.497Z,24.30
2022-08-09T12:26:42.024Z,24.30
2022-08-09T12:29:32.824Z,24.30
2022-08-09T12:32:02.036Z,24.30
2022-08-09T12:34:29.993Z,24.30
2022-08-09T12:36:58.645Z,24.30
2022-08-09T12:39:25.818Z,24.30
2022-08-09T12:41:54.178Z,24.30
2022-08-09T12:44:24.633Z,24.30
2022-08-09T12:46:51.313Z,24.30
2022-08-09T12:49:17.863Z,24.40
2022-08-09T12:52:00.218Z,24.30
2022-08-09T12:54:28.433Z,24.30
2022-08-09T12:56:57.546Z,24.30
2022-08-09T12:59:24.070Z,24.30
2022-08-09T13:01:50.679Z,24.30
2022-08-09T13:04:36.085Z,24.30
2022-08-09T13:07:03.744Z,24.30
2022-08-09T13:09:30.725Z,24.40
2022-08-09T13:12:01.527Z,24.40
2022-08-09T13:14:42.181Z,24.40
2022-08-09T13:17:14.144Z,24.30
2022-08-09T13:20:09.561Z,24.40
2022-08-09T13:22:36.206Z,24.40
2022-08-09T13:25:05.582Z,24.40
2022-08-09T13:27:40.172Z,24.40
2022-08-09T13:30:50.335Z,24.40
2022-08-09T13:33:03.341Z,24.40
2022-08-09T13:35:34.738Z,24.40
2022-08-09T13:38:56.196Z,24.40
2022-08-09T13:41:54.455Z,24.40
2022-08-09T13:43:52.995Z,24.30
2022-08-09T13:47:17.985Z,24.40
2022-08-09T13:49:06.320Z,24.40
2022-08-09T13:52:00.589Z,24.40
2022-08-09T13:54:27.643Z,24.50
2022-08-09T13:56:56.937Z,24.40
2022-08-09T13:59:25.612Z,24.40
2022-08-09T14:02:00.951Z,24.40
2022-08-09T14:04:28.995Z,24.50
2022-08-09T14:06:55.628Z,24.50
2022-08-09T14:09:22.248Z,24.50
2022-08-09T14:11:48.850Z,24.50
2022-08-09T14:14:26.020Z,24.50
2022-08-09T14:16:53.526Z,24.50
2022-08-09T14:19:20.407Z,24.50
2022-08-09T14:21:47.165Z,24.50
2022-08-09T14:24:18.748Z,24.50
2022-08-09T14:26:51.470Z,24.50
2022-08-09T14:30:18.745Z,24.50
2022-08-09T14:32:11.325Z,24.50
2022-08-09T14:34:45.806Z,24.50
2022-08-09T14:37:12.360Z,24.50
2022-08-09T14:39:45.979Z,24.50
2022-08-09T14:42:32.026Z,24.50
2022-08-09T14:45:01.098Z,24.60
2022-08-09T14:47:46.615Z,24.60
2022-08-09T14:50:16.126Z,24.60
2022-08-09T14:52:42.988Z,24.60
2022-08-09T14:55:09.536Z,24.60
2022-08-09T14:57:43.513Z,24.60
2022-08-09T15:00:10.246Z,24.60
2022-08-09T15:02:36.763Z,24.60
2022-08-09T15:05:04.106Z,24.60
2022-08-09T15:07:35.497Z,24.60
2022-08-09T15:10:07.521Z,24.60
2022-08-09T15:12:37.383Z,24.60
2022-08-09T15:15:03.904Z,24.60
2022-08-09T15:17:42.047Z,24.60
2022-08-09T15:20:11.770Z,24.60
2022-08-09T15:22:47.209Z,24.60
2022-08-09T15:25:14.381Z,24.60
2022-08-09T15:27:48.057Z,24.60
2022-08-09T15:30:58.652Z,24.70
2022-08-09T15:33:15.159Z,24.70
2022-08-09T15:36:01.918Z,24.70
2022-08-09T15:38:28.839Z,24.70
2022-08-09T15:40:55.361Z,24.70
2022-08-09T15:43:22.197Z,24.70
2022-08-09T15:46:28.435Z,24.70
2022-08-09T15:48:37.952Z,24.80
2022-08-09T15:51:30.218Z,24.70
2022-08-09T15:54:04.757Z,24.80
2022-08-09T15:56:34.636Z,24.70
2022-08-09T15:59:01.162Z,24.70
2022-08-09T16:01:31.537Z,24.70
2022-08-09T16:04:02.173Z,24.70
2022-08-09T16:06:35.523Z,24.80
2022-08-09T16:09:05.113Z,24.70
2022-08-09T16:11:32.915Z,24.80
2022-08-09T16:14:04.083Z,24.70
2022-08-09T16:16:34.553Z,24.80
2022-08-09T16:19:03.573Z,24.70
2022-08-09T16:21:31.804Z,24.80
2022-08-09T16:24:02.643Z,24.80
2022-08-09T16:26:33.871Z,24.90
2022-08-09T16:29:00.888Z,24.90
2022-08-09T16:31:38.279Z,24.90
2022-08-09T16:34:23.981Z,25.00
2022-08-09T16:36:50.524Z,25.00
2022-08-09T16:39:17.101Z,25.00
2022-08-09T16:42:04.277Z,25.00
2022-08-09T16:44:31.911Z,25.00
2022-08-09T16:47:01.846Z,25.00
2022-08-09T16:50:30.416Z,25.00
2022-08-09T16:52:17.406Z,24.90
2022-08-09T16:54:45.758Z,24.90
2022-08-09T16:57:12.355Z,24.90
2022-08-09T16:59:44.117Z,24.90
2022-08-09T17:02:17.839Z,24.90
2022-08-09T17:04:49.697Z,24.90
2022-08-09T17:08:45.393Z,24.90
2022-08-09T17:10:04.011Z,24.90
2022-08-09T17:12:30.786Z,24.90
2022-08-09T17:14:58.194Z,24.90
2022-08-09T17:17:27.941Z,24.90
2022-08-09T17:20:32.980Z,24.90
2022-08-09T17:22:50.244Z,24.90
2022-08-09T17:25:18.917Z,24.90
2022-08-09T17:27:49.490Z,24.90
2022-08-09T17:30:20.799Z,24.90
2022-08-09T17:32:51.977Z,24.90
2022-08-09T17:35:18.500Z,24.90
2022-08-09T17:38:11.342Z,24.90
2022-08-09T17:40:32.768Z,24.90
2022-08-09T17:43:10.589Z,24.80
2022-08-09T17:46:04.479Z,24.80
2022-08-09T17:48:32.522Z,24.80
2022-08-09T17:51:08.758Z,24.80
2022-08-09T17:53:51.601Z,24.80
2022-08-09T17:56:20.388Z,24.80
2022-08-09T17:58:47.149Z,24.80
2022-08-09T18:01:22.360Z,24.80
2022-08-09T18:03:50.023Z,24.80
2022-08-09T18:06:31.147Z,24.70
2022-08-09T18:08:59.305Z,24.70
2022-08-09T18:11:25.827Z,24.70
2022-08-09T18:13:56.594Z,24.70
2022-08-09T18:16:29.408Z,24.70
2022-08-09T18:18:56.699Z,24.70
2022-08-09T18:21:24.235Z,24.70
2022-08-09T18:24:09.976Z,24.70
2022-08-09T18:26:37.801Z,24.70
2022-08-09T18:30:35.052Z,24.70
2022-08-09T18:31:55.870Z,24.70
2022-08-09T18:34:24.152Z,24.60
2022-08-09T18:36:50.871Z,24.70
2022-08-09T18:39:20.070Z,24.60
2022-08-09T18:41:52.213Z,24.70
2022-08-09T18:44:19.958Z,24.60
2022-08-09T18:47:07.877Z,24.60
2022-08-09T18:49:43.215Z,24.60
2022-08-09T18:52:11.928Z,24.60
2022-08-09T18:54:38.621Z,24.60
2022-08-09T18:57:06.787Z,24.60
2022-08-09T18:59:49.194Z,24.60
2022-08-09T19:02:19.332Z,24.60
2022-08-09T19:04:47.276Z,24.60
2022-08-09T19:07:14.670Z,24.60
2022-08-09T19:10:16.873Z,24.60
2022-08-09T19:12:29.575Z,24.60
2022-08-09T19:14:56.238Z,24.60
2022-08-09T19:17:23.059Z,24.60
2022-08-09T19:19:49.589Z,24.60
2022-08-09T19:22:25.262Z,24.60
2022-08-09T19:25:09.852Z,24.60
2022-08-09T19:27:39.740Z,24.60
2022-08-09T19:30:22.689Z,24.60
2022-08-09T19:32:53.549Z,24.60
2022-08-09T19:35:21.624Z,24.60
2022-08-09T19:37:56.286Z,24.60
2022-08-09T19:40:24.448Z,24.60
2022-08-09T19:43:01.202Z,24.60
2022-08-09T19:45:40.206Z,24.60
2022-08-09T19:48:07.752Z,24.60
2022-08-09T19:50:51.260Z,24.60
2022-08-09T19:53:21.043Z,24.50
2022-08-09T19:56:03.186Z,24.60
2022-08-09T19:58:32.527Z,24.50
2022-08-09T20:00:59.202Z,24.60
2022-08-09T20:04:12.415Z,24.50
2022-08-09T20:06:23.300Z,24.50
2022-08-09T20:08:50.967Z,24.50
2022-08-09T20:11:26.164Z,24.50
2022-08-09T20:13:54.317Z,24.50
2022-08-09T20:16:34.352Z,24.50
2022-08-09T20:19:48.424Z,24.50
2022-08-09T20:21:56.171Z,24.50
2022-08-09T20:24:29.643Z,24.50
2022-08-09T20:27:00.142Z,24.50
2022-08-09T20:29:32.705Z,24.50
2022-08-09T20:32:31.301Z,24.50
2022-08-09T20:34:50.725Z,24.50
2022-08-09T20:37:21.619Z,24.50
2022-08-09T20:40:14.672Z,24.50
2022-08-09T20:42:35.841Z,24.50
2022-08-09T20:45:59.462Z,24.50
2022-08-09T20:47:51.157Z,24.50
2022-08-09T20:50:47.331Z,24.50
2022-08-09T20:53:18.793Z,24.50
2022-08-09T20:56:02.422Z,24.50
2022-08-09T20:58:32.298Z,24.50
2022-08-09T21:01:13.564Z,24.50
2022-08-09T21:05:48.720Z,24.50
2022-08-09T21:06:32.484Z,24.50
2022-08-09T21:09:01.621Z,24.40
2022-08-09T21:14:20.254Z,24.40
2022-08-09T21:16:46.772Z,24.50
2022-08-09T21:20:18.833Z,24.40
2022-08-09T21:21:59.790Z,24.50
2022-08-09T21:24:28.580Z,24.40
2022-08-09T21:26:55.600Z,24.40
2022-08-09T21:29:24.945Z,24.40
2022-08-09T21:31:51.776Z,24.40
2022-08-09T21:34:28.680Z,24.40
2022-08-09T21:36:57.784Z,24.40
2022-08-09T21:39:28.352Z,24.40
2022-08-09T21:42:10.328Z,24.40
2022-08-09T21:44:38.007Z,24.40
2022-08-09T21:47:04.701Z,24.40
2022-08-09T21:49:39.804Z,24.40
2022-08-09T21:52:14.986Z,24.40
2022-08-09T21:54:46.366Z,24.40
2022-08-09T21:57:37.053Z,24.40
2022-08-09T22:00:02.763Z,24.40
2022-08-09T22:02:36.127Z,24.40
2022-08-09T22:05:16.687Z,24.40
2022-08-09T22:07:52.160Z,24.40
2022-08-09T22:10:22.144Z,24.40
2022-08-09T22:12:50.085Z,24.40
2022-08-09T22:15:16.977Z,24.40
2022-08-09T22:17:46.575Z,24.40
2022-08-09T22:20:21.533Z,24.40
2022-08-09T22:22:48.732Z,24.40
2022-08-09T22:26:07.454Z,24.40
2022-08-09T22:28:06.559Z,24.40
2022-08-09T22:30:33.901Z,24.40
2022-08-09T22:33:00.418Z,24.40
2022-08-09T22:36:01.824Z,24.40
2022-08-09T22:38:20.502Z,24.40
2022-08-09T22:40:49.236Z,24.40
2022-08-09T22:44:01.642Z,24.40
2022-08-09T22:48:16.873Z,24.40
2022-08-09T22:49:01.776Z,24.40
2022-08-09T22:51:32.028Z,24.40
2022-08-09T22:54:03.116Z,24.40
2022-08-09T22:56:33.914Z,24.40
2022-08-09T22:59:00.986Z,24.40
2022-08-09T23:01:32.749Z,24.40
2022-08-09T23:04:07.219Z,24.30
2022-08-09T23:06:36.137Z,24.30
2022-08-09T23:09:02.864Z,24.40
2022-08-09T23:11:29.387Z,24.30
2022-08-09T23:13:57.807Z,24.30
2022-08-09T23:16:24.325Z,24.40
2022-08-09T23:18:50.855Z,24.40
2022-08-09T23:21:25.150Z,24.30
2022-08-09T23:24:05.327Z,24.30
2022-08-09T23:26:33.250Z,24.40
2022-08-09T23:28:59.764Z,24.30
2022-08-09T23:31:26.307Z,24.40
2022-08-09T23:33:52.820Z,24.40
2022-08-09T23:36:19.367Z,24.30
2022-08-09T23:38:48.862Z,24.30
2022-08-09T23:41:28.233Z,24.30
2022-08-09T23:43:55.927Z,24.30
2022-08-09T23:46:22.477Z,24.30
2022-08-09T23:48:51.842Z,24.30
2022-08-09T23:51:21.892Z,24.30
2022-08-09T23:53:51.472Z,24.30
2022-08-09T23:56:39.535Z,24.30
2022-08-09T23:59:05.651Z,24.30
